MV Dimitris Y — D5IR8 — position and weather

sailwx.info

Track history (hours):
 
Tides and Currents Weather Stations Pressure Air Temp Water Temp Dewpoint Dewpoint Depression Visibility Wind Speed Wind Dir Waves Ship Positions

MV Dimitris Y

Last reported at 2017-Dec-15 18:06 UTC. Time now 2017-Dec-16 11:30 UTC.
Position N 39°31' W 009°52'.

Length 278 m; draft 10.1 m.

Type: Ship (hazmat cat A). MMSI: 636016979.

Date/timePositionNaut miles runAvg speedWind from/ knotsBaromVisibWave heightAir tempDewpointWater temp
2017-Dec-15 18:06N 39°31' W 009°52'316.0
2017-Dec-15 17:55N 39°28' W 009°52'615.7
2017-Dec-15 17:31N 39°22' W 009°52'815.5
2017-Dec-15 17:01N 39°14' W 009°52'815.3
2017-Dec-15 16:30N 39°07' W 009°51'815.5
2017-Dec-15 16:00N 38°59' W 009°52'815.3
2017-Dec-15 15:30N 38°51' W 009°52'815.1
2017-Dec-15 15:00N 38°44' W 009°51'815.1
2017-Dec-15 14:30N 38°36' W 009°49'815.4
2017-Dec-15 14:00N 38°29' W 009°47'816.1
2017-Dec-15 13:30N 38°21' W 009°45'816.0
2017-Dec-15 13:00N 38°13' W 009°42'816.4
2017-Dec-15 12:31N 38°05' W 009°40'41213.2
2017-Dec-14 05:22N 37°14' W 001°04'616.6
2017-Dec-14 05:00N 37°17' W 000°58'816.3
2017-Dec-14 04:29N 37°23' W 000°50'2316.1
2017-Dec-14 03:04N 37°39' W 000°30'116.6
2017-Dec-14 03:01N 37°40' W 000°29'816.4
2017-Dec-14 02:30N 37°47' W 000°23'816.2
2017-Dec-14 02:01N 37°54' W 000°18'816.0
2017-Dec-14 01:31N 38°01' W 000°12'1215.5
2017-Dec-14 00:43N 38°11' W 000°04'415.3
2017-Dec-14 00:29N 38°14' W 000°01'715.4
2017-Dec-14 00:00N 38°20' E 000°04'128 4.5
2017-Dec-12 19:28N 39°03' E 002°39'714.7
2017-Dec-12 18:58N 39°02' E 002°48'1015.1
2017-Dec-12 18:18N 38°60' E 003°01'31814.3
2017-Dec-11 20:07N 37°46' E 009°35'22415.0
2017-Dec-11 05:13N 36°34' E 014°01'416.4
2017-Dec-11 05:00N 36°32' E 014°05'816.8
2017-Dec-11 04:30N 36°30' E 014°15'816.7
2017-Dec-11 04:00N 36°28' E 014°25'817.0
2017-Dec-11 03:30N 36°25' E 014°35'  
2017-Dec-07 13:44N 31°52' E 034°38'13 5.1
2017-Dec-07 11:08N 32°04' E 034°32'216.3
2017-Dec-07 11:01N 32°06' E 034°33'816.9
2017-Dec-07 10:30N 32°14' E 034°35'1019.9
2017-Dec-07 10:00N 32°24' E 034°39'1019.8
2017-Dec-07 09:30N 32°33' E 034°43'1019.5
2017-Dec-07 09:01N 32°42' E 034°46'1019.1
2017-Dec-07 08:30N 32°51' E 034°50'  
Track history (hours):
 
Tides and Currents Weather Stations Pressure Air Temp Water Temp Dewpoint Dewpoint Depression Visibility Wind Speed Wind Dir Waves Ship Positions

MV Dimitris Y

Last reported at 2017-Dec-15 18:06 UTC. Time now 2017-Dec-16 11:30 UTC.
Position N 39°31' W 009°52'.

Length 278 m; draft 10.1 m.

Type: Ship (hazmat cat A). MMSI: 636016979.

Date/timePositionNaut miles runAvg speedWind from/ knotsBaromVisibWave heightAir tempDewpointWater temp
2017-Dec-15 18:06N 39°31' W 009°52'316.0
2017-Dec-15 17:55N 39°28' W 009°52'615.7
2017-Dec-15 17:31N 39°22' W 009°52'815.5
2017-Dec-15 17:01N 39°14' W 009°52'815.3
2017-Dec-15 16:30N 39°07' W 009°51'815.5
2017-Dec-15 16:00N 38°59' W 009°52'815.3
2017-Dec-15 15:30N 38°51' W 009°52'815.1
2017-Dec-15 15:00N 38°44' W 009°51'815.1
2017-Dec-15 14:30N 38°36' W 009°49'815.4
2017-Dec-15 14:00N 38°29' W 009°47'816.1
2017-Dec-15 13:30N 38°21' W 009°45'816.0
2017-Dec-15 13:00N 38°13' W 009°42'816.4
2017-Dec-15 12:31N 38°05' W 009°40'41213.2
2017-Dec-14 05:22N 37°14' W 001°04'616.6
2017-Dec-14 05:00N 37°17' W 000°58'816.3
2017-Dec-14 04:29N 37°23' W 000°50'2316.1
2017-Dec-14 03:04N 37°39' W 000°30'116.6
2017-Dec-14 03:01N 37°40' W 000°29'816.4
2017-Dec-14 02:30N 37°47' W 000°23'816.2
2017-Dec-14 02:01N 37°54' W 000°18'816.0
2017-Dec-14 01:31N 38°01' W 000°12'1215.5
2017-Dec-14 00:43N 38°11' W 000°04'415.3
2017-Dec-14 00:29N 38°14' W 000°01'715.4
2017-Dec-14 00:00N 38°20' E 000°04'128 4.5
2017-Dec-12 19:28N 39°03' E 002°39'714.7
2017-Dec-12 18:58N 39°02' E 002°48'1015.1
2017-Dec-12 18:18N 38°60' E 003°01'31814.3
2017-Dec-11 20:07N 37°46' E 009°35'22415.0
2017-Dec-11 05:13N 36°34' E 014°01'416.4
2017-Dec-11 05:00N 36°32' E 014°05'816.8
2017-Dec-11 04:30N 36°30' E 014°15'816.7
2017-Dec-11 04:00N 36°28' E 014°25'817.0
2017-Dec-11 03:30N 36°25' E 014°35'  
2017-Dec-07 13:44N 31°52' E 034°38'13 5.1
2017-Dec-07 11:08N 32°04' E 034°32'216.3
2017-Dec-07 11:01N 32°06' E 034°33'816.9
2017-Dec-07 10:30N 32°14' E 034°35'1019.9
2017-Dec-07 10:00N 32°24' E 034°39'1019.8
2017-Dec-07 09:30N 32°33' E 034°43'1019.5
2017-Dec-07 09:01N 32°42' E 034°46'1019.1
2017-Dec-07 08:30N 32°51' E 034°50'  

Dump ship's entire track history